Terminal Aerodrome Forecast
Issued by NWS Cleveland, OH

Home | Current Version | Previous Version | Graphics & Text | Print | Product List | Glossary On
Versions: 1 2 3 4 5 6 7 8 9 10 11 12 13 14 15 16 17 18 19 20
662
FTUS41 KCLE 130215 AAA
TAFYNG
TAF AMD
KYNG 130215Z 1302/1324 27012KT 6SM -SHSN OVC035
      TEMPO 1302/1306 30015KT 2SM -SHSN BKN025
     FM131200 26012KT P6SM BKN025
     FM132000 23008KT 3SM -SN BKN010=

USA.gov is the U.S. government's official web portal to all federal, state and local government web resources and services.